JBU3170 KRDU-KFLL
Flight info
| Callsign | JBU3170 |
|---|---|
| Flight time | N/A |
| Altitude | 38000 |
| Route | ROZBO5 ROZBO GARIC JRDAN Y291 MAJIK CUUDA3 |
| Aircraft | A21N/M-SDE2E3FGHIRWXY/LB1 |
Departure
| Time | 2026-05-07 01:48 |
|---|---|
| Airport | Raleigh-Durham International Airport (KRDU) |
Arrival
| Time | N/A |
|---|---|
| Airport | Fort Lauderdale Hollywood International Airport (KFLL) |
| Time | Latitude | Longitude | Altitude | Speed | Heading |
|---|---|---|---|---|---|
| 2026-05-07 01:06 | 35.87666 | -78.79526 | 394 ft | 0 kts | 135° |
| 2026-05-07 01:30 | 35.87668 | -78.79529 | 396 ft | 3 kts | 136° |
| 2026-05-07 01:30 | 35.87689 | -78.79548 | 395 ft | 4 kts | 157° |
| 2026-05-07 01:31 | 35.87714 | -78.79554 | 392 ft | 4 kts | 191° |
| 2026-05-07 01:31 | 35.87737 | -78.79542 | 395 ft | 3 kts | 224° |
| 2026-05-07 01:31 | 35.87739 | -78.79539 | 395 ft | 0 kts | 225° |
| 2026-05-07 01:34 | 35.87720 | -78.79562 | 387 ft | 14 kts | 224° |
| 2026-05-07 01:35 | 35.87622 | -78.79682 | 393 ft | 23 kts | 224° |
| 2026-05-07 01:35 | 35.87534 | -78.79792 | 392 ft | 1 kts | 241° |
| 2026-05-07 01:35 | 35.87543 | -78.79815 | 393 ft | 6 kts | 312° |
| 2026-05-07 01:35 | 35.87604 | -78.79808 | 387 ft | 10 kts | 46° |
| 2026-05-07 01:36 | 35.87651 | -78.79754 | 388 ft | 9 kts | 43° |
| 2026-05-07 01:36 | 35.87687 | -78.79710 | 389 ft | 2 kts | 46° |
| 2026-05-07 01:36 | 35.87689 | -78.79708 | 389 ft | 0 kts | 46° |
| 2026-05-07 01:36 | 35.87713 | -78.79677 | 390 ft | 7 kts | 45° |
| 2026-05-07 01:37 | 35.87754 | -78.79626 | 391 ft | 13 kts | 45° |
| 2026-05-07 01:37 | 35.87802 | -78.79566 | 392 ft | 3 kts | 45° |
| 2026-05-07 01:37 | 35.87809 | -78.79557 | 392 ft | 0 kts | 45° |
| 2026-05-07 01:37 | 35.87846 | -78.79510 | 393 ft | 10 kts | 45° |
| 2026-05-07 01:38 | 35.87892 | -78.79456 | 387 ft | 9 kts | 44° |
| 2026-05-07 01:38 | 35.87942 | -78.79396 | 392 ft | 11 kts | 44° |
| 2026-05-07 01:38 | 35.87999 | -78.79326 | 393 ft | 12 kts | 44° |
| 2026-05-07 01:38 | 35.88046 | -78.79270 | 394 ft | 9 kts | 44° |
| 2026-05-07 01:39 | 35.88087 | -78.79218 | 395 ft | 8 kts | 46° |
| 2026-05-07 01:39 | 35.88124 | -78.79168 | 392 ft | 8 kts | 47° |
| 2026-05-07 01:39 | 35.88162 | -78.79120 | 395 ft | 8 kts | 49° |
| 2026-05-07 01:39 | 35.88163 | -78.79043 | 398 ft | 10 kts | 118° |
| 2026-05-07 01:40 | 35.88114 | -78.78975 | 397 ft | 11 kts | 135° |
| 2026-05-07 01:40 | 35.88029 | -78.78870 | 400 ft | 17 kts | 135° |
| 2026-05-07 01:40 | 35.87956 | -78.78791 | 416 ft | 15 kts | 148° |
| 2026-05-07 01:40 | 35.87872 | -78.78753 | 409 ft | 12 kts | 163° |
| 2026-05-07 01:41 | 35.87805 | -78.78702 | 413 ft | 11 kts | 138° |
| 2026-05-07 01:41 | 35.87748 | -78.78635 | 415 ft | 11 kts | 136° |
| 2026-05-07 01:41 | 35.87691 | -78.78567 | 415 ft | 11 kts | 136° |
| 2026-05-07 01:41 | 35.87679 | -78.78553 | 416 ft | 0 kts | 136° |
| 2026-05-07 01:42 | 35.87677 | -78.78551 | 409 ft | 0 kts | 136° |
| 2026-05-07 01:42 | 35.87657 | -78.78525 | 412 ft | 13 kts | 130° |
| 2026-05-07 01:42 | 35.87660 | -78.78455 | 417 ft | 14 kts | 52° |
| 2026-05-07 01:43 | 35.87777 | -78.78302 | 421 ft | 23 kts | 48° |
| 2026-05-07 01:43 | 35.87878 | -78.78180 | 417 ft | 12 kts | 45° |
| 2026-05-07 01:43 | 35.87899 | -78.78154 | 417 ft | 10 kts | 44° |
| 2026-05-07 01:43 | 35.87930 | -78.78115 | 410 ft | 0 kts | 45° |
| 2026-05-07 01:44 | 35.87935 | -78.78110 | 419 ft | 2 kts | 45° |
| 2026-05-07 01:44 | 35.87949 | -78.78092 | 416 ft | 2 kts | 45° |
| 2026-05-07 01:44 | 35.87950 | -78.78090 | 417 ft | 1 kts | 46° |
| 2026-05-07 01:44 | 35.87967 | -78.78057 | 416 ft | 5 kts | 73° |
| 2026-05-07 01:45 | 35.87965 | -78.78038 | 417 ft | 0 kts | 111° |
| 2026-05-07 01:46 | 35.87963 | -78.78033 | 417 ft | 8 kts | 114° |
| 2026-05-07 01:47 | 35.87915 | -78.77972 | 416 ft | 8 kts | 182° |
| 2026-05-07 01:47 | 35.87833 | -78.78046 | 423 ft | 14 kts | 225° |
| 2026-05-07 01:47 | 35.87588 | -78.78341 | 418 ft | 89 kts | 225° |
| 2026-05-07 01:47 | 35.86951 | -78.79128 | 416 ft | 168 kts | 224° |
| 2026-05-07 01:48 | 35.86016 | -78.80254 | 796 ft | 199 kts | 224° |
| 2026-05-07 01:48 | 35.84993 | -78.81487 | 1532 ft | 212 kts | 223° |
| 2026-05-07 01:48 | 35.83868 | -78.82739 | 2391 ft | 222 kts | 220° |
| 2026-05-07 01:48 | 35.82581 | -78.83853 | 3169 ft | 231 kts | 211° |
| 2026-05-07 01:49 | 35.80963 | -78.84236 | 3854 ft | 252 kts | 178° |
| 2026-05-07 01:49 | 35.79238 | -78.83594 | 4597 ft | 266 kts | 165° |
| 2026-05-07 01:49 | 35.77509 | -78.82701 | 5377 ft | 273 kts | 164° |
| 2026-05-07 01:49 | 35.75734 | -78.81793 | 6158 ft | 280 kts | 165° |
| 2026-05-07 01:50 | 35.73905 | -78.80898 | 6917 ft | 286 kts | 165° |
| 2026-05-07 01:50 | 35.72040 | -78.80013 | 7729 ft | 289 kts | 166° |
| 2026-05-07 01:50 | 35.70151 | -78.79135 | 8582 ft | 291 kts | 166° |
| 2026-05-07 01:50 | 35.68238 | -78.78256 | 9428 ft | 296 kts | 166° |
| 2026-05-07 01:51 | 35.66295 | -78.77371 | 10200 ft | 301 kts | 166° |
| 2026-05-07 01:51 | 35.64294 | -78.76470 | 10597 ft | 320 kts | 166° |
| 2026-05-07 01:51 | 35.62133 | -78.75499 | 10898 ft | 341 kts | 166° |
| 2026-05-07 01:51 | 35.59864 | -78.74475 | 11379 ft | 353 kts | 166° |
| 2026-05-07 01:52 | 35.57540 | -78.73421 | 12016 ft | 359 kts | 165° |
| 2026-05-07 01:52 | 35.55179 | -78.72351 | 12702 ft | 364 kts | 165° |
| 2026-05-07 01:52 | 35.52782 | -78.71280 | 13400 ft | 368 kts | 167° |
| 2026-05-07 01:52 | 35.50308 | -78.70532 | 14086 ft | 366 kts | 176° |
| 2026-05-07 01:53 | 35.47775 | -78.70102 | 14736 ft | 369 kts | 179° |
| 2026-05-07 01:53 | 35.45212 | -78.69738 | 15383 ft | 373 kts | 180° |
| 2026-05-07 01:53 | 35.42619 | -78.69378 | 16030 ft | 377 kts | 180° |
| 2026-05-07 01:53 | 35.39993 | -78.69011 | 16679 ft | 382 kts | 180° |
| 2026-05-07 01:54 | 35.37335 | -78.68633 | 17291 ft | 387 kts | 180° |
| 2026-05-07 01:54 | 35.34641 | -78.68252 | 17877 ft | 392 kts | 180° |
| 2026-05-07 01:54 | 35.31915 | -78.67866 | 18425 ft | 398 kts | 180° |
| 2026-05-07 01:54 | 35.29144 | -78.67471 | 18906 ft | 403 kts | 180° |
| 2026-05-07 01:55 | 35.26349 | -78.67072 | 19454 ft | 406 kts | 180° |
| 2026-05-07 01:55 | 35.23536 | -78.66670 | 20017 ft | 408 kts | 180° |
| 2026-05-07 01:55 | 35.20706 | -78.66266 | 20532 ft | 412 kts | 180° |
| 2026-05-07 01:55 | 35.17848 | -78.65860 | 21041 ft | 416 kts | 180° |
| 2026-05-07 01:56 | 35.14965 | -78.65449 | 21565 ft | 418 kts | 180° |
| 2026-05-07 01:56 | 35.12063 | -78.65036 | 22115 ft | 420 kts | 180° |
| 2026-05-07 01:56 | 35.09191 | -78.64622 | 23044 ft | 410 kts | 181° |
| 2026-05-07 01:56 | 35.06405 | -78.64218 | 23796 ft | 397 kts | 181° |
| 2026-05-07 01:57 | 35.03697 | -78.63828 | 24342 ft | 386 kts | 181° |
| 2026-05-07 01:57 | 35.01047 | -78.63451 | 24779 ft | 382 kts | 181° |
| 2026-05-07 01:57 | 34.98404 | -78.63065 | 25286 ft | 384 kts | 179° |
| 2026-05-07 01:57 | 34.95770 | -78.62401 | 25772 ft | 391 kts | 171° |
| 2026-05-07 01:58 | 34.93185 | -78.61243 | 26200 ft | 400 kts | 163° |
| 2026-05-07 01:58 | 34.90641 | -78.59839 | 26646 ft | 403 kts | 161° |
| 2026-05-07 01:58 | 34.88114 | -78.58323 | 27089 ft | 406 kts | 160° |
| 2026-05-07 01:58 | 34.85593 | -78.56756 | 27482 ft | 408 kts | 159° |
| 2026-05-07 01:59 | 34.83060 | -78.55173 | 27885 ft | 410 kts | 159° |
| 2026-05-07 01:59 | 34.80515 | -78.53592 | 28269 ft | 412 kts | 160° |
| 2026-05-07 01:59 | 34.77991 | -78.52040 | 28647 ft | 413 kts | 160° |
| 2026-05-07 01:59 | 34.75417 | -78.50472 | 29020 ft | 415 kts | 160° |
| 2026-05-07 02:00 | 34.72825 | -78.48904 | 29388 ft | 417 kts | 160° |
| 2026-05-07 02:00 | 34.70226 | -78.47337 | 29751 ft | 418 kts | 160° |
| 2026-05-07 02:00 | 34.67611 | -78.45765 | 30040 ft | 421 kts | 160° |
| 2026-05-07 02:00 | 34.64977 | -78.44184 | 30308 ft | 423 kts | 160° |
| 2026-05-07 02:01 | 34.62327 | -78.42595 | 30571 ft | 426 kts | 160° |
| 2026-05-07 02:01 | 34.59669 | -78.41000 | 30835 ft | 428 kts | 160° |
| 2026-05-07 02:01 | 34.56995 | -78.39396 | 31090 ft | 430 kts | 160° |
| 2026-05-07 02:01 | 34.54309 | -78.37785 | 31343 ft | 432 kts | 160° |
| 2026-05-07 02:02 | 34.51615 | -78.36170 | 31575 ft | 434 kts | 160° |
| 2026-05-07 02:02 | 34.48900 | -78.34544 | 31805 ft | 435 kts | 160° |
| 2026-05-07 02:02 | 34.46145 | -78.32895 | 32047 ft | 437 kts | 160° |
| 2026-05-07 02:02 | 34.43448 | -78.31282 | 32268 ft | 439 kts | 160° |
| 2026-05-07 02:03 | 34.40701 | -78.29641 | 32429 ft | 442 kts | 160° |
| 2026-05-07 02:03 | 34.37932 | -78.27990 | 32617 ft | 445 kts | 160° |
| 2026-05-07 02:03 | 34.35153 | -78.26331 | 32848 ft | 446 kts | 160° |
| 2026-05-07 02:03 | 34.32366 | -78.24670 | 33068 ft | 448 kts | 161° |
| 2026-05-07 02:04 | 34.29565 | -78.23000 | 33276 ft | 449 kts | 161° |
| 2026-05-07 02:04 | 34.26754 | -78.21327 | 33483 ft | 451 kts | 161° |
| 2026-05-07 02:04 | 34.23934 | -78.19649 | 33690 ft | 453 kts | 161° |
| 2026-05-07 02:04 | 34.21102 | -78.17966 | 33876 ft | 454 kts | 161° |
| 2026-05-07 02:05 | 34.18261 | -78.16278 | 34060 ft | 456 kts | 161° |
| 2026-05-07 02:05 | 34.15409 | -78.14586 | 34181 ft | 458 kts | 161° |
| 2026-05-07 02:05 | 34.12523 | -78.12878 | 34162 ft | 465 kts | 161° |
| 2026-05-07 02:06 | 34.06682 | -78.09422 | 34420 ft | 469 kts | 161° |
| 2026-05-07 02:06 | 34.03743 | -78.07681 | 34557 ft | 471 kts | 162° |
| 2026-05-07 02:06 | 34.00792 | -78.05935 | 34695 ft | 473 kts | 162° |
| 2026-05-07 02:06 | 33.97831 | -78.04185 | 34812 ft | 476 kts | 162° |
| 2026-05-07 02:07 | 33.94847 | -78.02425 | 34881 ft | 479 kts | 162° |